sensor_id;sensor_type;location;lat;lon;timestamp;P1;durP1;ratioP1;P2;durP2;ratioP2
16119;SDS011;12670;53.502;10.252;2022-07-22T00:02:55;19.00;;;14.13;;
16119;SDS011;12670;53.502;10.252;2022-07-22T00:05:58;18.23;;;13.70;;
16119;SDS011;12670;53.502;10.252;2022-07-22T00:09:00;19.07;;;12.70;;
16119;SDS011;12670;53.502;10.252;2022-07-22T00:12:05;21.30;;;13.57;;
16119;SDS011;12670;53.502;10.252;2022-07-22T00:15:08;17.90;;;13.73;;
16119;SDS011;12670;53.502;10.252;2022-07-22T00:18:11;23.60;;;14.70;;
16119;SDS011;12670;53.502;10.252;2022-07-22T00:21:14;24.27;;;15.53;;
16119;SDS011;12670;53.502;10.252;2022-07-22T00:24:16;27.80;;;16.20;;
16119;SDS011;12670;53.502;10.252;2022-07-22T00:27:20;23.43;;;16.13;;
16119;SDS011;12670;53.502;10.252;2022-07-22T00:30:23;21.47;;;15.93;;
16119;SDS011;12670;53.502;10.252;2022-07-22T00:33:26;21.87;;;15.90;;
16119;SDS011;12670;53.502;10.252;2022-07-22T00:36:29;24.53;;;16.00;;
16119;SDS011;12670;53.502;10.252;2022-07-22T00:39:31;25.37;;;16.23;;
16119;SDS011;12670;53.502;10.252;2022-07-22T00:42:36;22.13;;;16.13;;
16119;SDS011;12670;53.502;10.252;2022-07-22T00:45:38;31.27;;;17.03;;
16119;SDS011;12670;53.502;10.252;2022-07-22T00:48:41;28.60;;;17.87;;
16119;SDS011;12670;53.502;10.252;2022-07-22T00:51:44;26.83;;;17.60;;
16119;SDS011;12670;53.502;10.252;2022-07-22T00:54:48;31.10;;;18.40;;
16119;SDS011;12670;53.502;10.252;2022-07-22T00:57:52;23.97;;;17.60;;
16119;SDS011;12670;53.502;10.252;2022-07-22T01:00:55;26.30;;;18.17;;
16119;SDS011;12670;53.502;10.252;2022-07-22T01:03:59;28.13;;;20.47;;
16119;SDS011;12670;53.502;10.252;2022-07-22T01:07:02;27.23;;;20.67;;
16119;SDS011;12670;53.502;10.252;2022-07-22T01:10:05;36.83;;;26.33;;
16119;SDS011;12670;53.502;10.252;2022-07-22T01:13:10;34.07;;;21.47;;
16119;SDS011;12670;53.502;10.252;2022-07-22T01:16:13;36.10;;;19.47;;
16119;SDS011;12670;53.502;10.252;2022-07-22T01:19:18;37.90;;;20.47;;
16119;SDS011;12670;53.502;10.252;2022-07-22T01:22:22;29.87;;;16.67;;
16119;SDS011;12670;53.502;10.252;2022-07-22T01:25:30;25.77;;;13.30;;
16119;SDS011;12670;53.502;10.252;2022-07-22T01:28:33;22.90;;;12.07;;
16119;SDS011;12670;53.502;10.252;2022-07-22T01:31:35;18.57;;;10.53;;
16119;SDS011;12670;53.502;10.252;2022-07-22T01:34:38;16.40;;;8.13;;
16119;SDS011;12670;53.502;10.252;2022-07-22T01:37:42;10.60;;;7.37;;
16119;SDS011;12670;53.502;10.252;2022-07-22T01:40:45;20.53;;;6.27;;
16119;SDS011;12670;53.502;10.252;2022-07-22T01:43:48;8.43;;;4.73;;
16119;SDS011;12670;53.502;10.252;2022-07-22T01:46:51;10.87;;;5.07;;
16119;SDS011;12670;53.502;10.252;2022-07-22T01:49:55;7.17;;;4.10;;
16119;SDS011;12670;53.502;10.252;2022-07-22T01:52:59;4.73;;;3.30;;
16119;SDS011;12670;53.502;10.252;2022-07-22T01:56:01;3.73;;;2.60;;
16119;SDS011;12670;53.502;10.252;2022-07-22T01:59:05;2.30;;;1.97;;
16119;SDS011;12670;53.502;10.252;2022-07-22T02:02:08;5.53;;;1.90;;
16119;SDS011;12670;53.502;10.252;2022-07-22T02:05:11;3.57;;;1.73;;
16119;SDS011;12670;53.502;10.252;2022-07-22T02:08:15;2.00;;;1.70;;
16119;SDS011;12670;53.502;10.252;2022-07-22T02:11:18;4.37;;;2.60;;
16119;SDS011;12670;53.502;10.252;2022-07-22T02:14:21;6.63;;;3.00;;
16119;SDS011;12670;53.502;10.252;2022-07-22T02:17:23;5.50;;;2.87;;
16119;SDS011;12670;53.502;10.252;2022-07-22T02:20:26;7.23;;;3.00;;
16119;SDS011;12670;53.502;10.252;2022-07-22T02:23:30;8.73;;;3.73;;
16119;SDS011;12670;53.502;10.252;2022-07-22T02:26:33;8.30;;;3.80;;
16119;SDS011;12670;53.502;10.252;2022-07-22T02:29:35;7.50;;;3.50;;
16119;SDS011;12670;53.502;10.252;2022-07-22T02:32:38;12.50;;;4.90;;
16119;SDS011;12670;53.502;10.252;2022-07-22T02:35:41;11.10;;;5.30;;
16119;SDS011;12670;53.502;10.252;2022-07-22T02:38:45;13.27;;;5.93;;
16119;SDS011;12670;53.502;10.252;2022-07-22T02:41:47;15.37;;;6.40;;
16119;SDS011;12670;53.502;10.252;2022-07-22T02:44:50;13.17;;;5.67;;
16119;SDS011;12670;53.502;10.252;2022-07-22T02:47:53;13.77;;;6.43;;
16119;SDS011;12670;53.502;10.252;2022-07-22T02:50:57;10.23;;;5.40;;
16119;SDS011;12670;53.502;10.252;2022-07-22T02:54:01;13.37;;;5.30;;
16119;SDS011;12670;53.502;10.252;2022-07-22T02:57:04;12.10;;;5.50;;
16119;SDS011;12670;53.502;10.252;2022-07-22T03:00:07;13.03;;;4.80;;
16119;SDS011;12670;53.502;10.252;2022-07-22T03:03:11;11.60;;;4.57;;
16119;SDS011;12670;53.502;10.252;2022-07-22T03:06:13;11.43;;;4.20;;
16119;SDS011;12670;53.502;10.252;2022-07-22T03:09:17;9.33;;;4.20;;
16119;SDS011;12670;53.502;10.252;2022-07-22T03:12:20;16.60;;;4.43;;
16119;SDS011;12670;53.502;10.252;2022-07-22T03:15:23;14.53;;;3.97;;
16119;SDS011;12670;53.502;10.252;2022-07-22T03:18:25;14.93;;;4.40;;
16119;SDS011;12670;53.502;10.252;2022-07-22T03:21:28;10.17;;;3.87;;
16119;SDS011;12670;53.502;10.252;2022-07-22T03:24:32;12.27;;;3.67;;
16119;SDS011;12670;53.502;10.252;2022-07-22T03:27:35;14.40;;;3.73;;
16119;SDS011;12670;53.502;10.252;2022-07-22T03:30:38;9.40;;;3.20;;
16119;SDS011;12670;53.502;10.252;2022-07-22T03:33:40;14.17;;;3.33;;
16119;SDS011;12670;53.502;10.252;2022-07-22T03:36:43;11.63;;;3.30;;
16119;SDS011;12670;53.502;10.252;2022-07-22T03:39:47;14.10;;;3.27;;
16119;SDS011;12670;53.502;10.252;2022-07-22T03:42:50;11.30;;;3.40;;
16119;SDS011;12670;53.502;10.252;2022-07-22T03:45:52;10.00;;;3.00;;
16119;SDS011;12670;53.502;10.252;2022-07-22T03:48:55;12.00;;;3.43;;
16119;SDS011;12670;53.502;10.252;2022-07-22T03:51:58;12.00;;;3.03;;
16119;SDS011;12670;53.502;10.252;2022-07-22T03:55:03;12.27;;;2.87;;
16119;SDS011;12670;53.502;10.252;2022-07-22T03:58:07;9.40;;;3.10;;
16119;SDS011;12670;53.502;10.252;2022-07-22T04:01:10;10.77;;;3.10;;
16119;SDS011;12670;53.502;10.252;2022-07-22T04:04:12;11.40;;;3.10;;
16119;SDS011;12670;53.502;10.252;2022-07-22T04:07:15;15.10;;;3.37;;
16119;SDS011;12670;53.502;10.252;2022-07-22T04:10:19;8.40;;;2.63;;
16119;SDS011;12670;53.502;10.252;2022-07-22T04:13:21;8.70;;;2.67;;
16119;SDS011;12670;53.502;10.252;2022-07-22T04:16:24;11.43;;;2.67;;
16119;SDS011;12670;53.502;10.252;2022-07-22T04:19:27;6.60;;;2.27;;
16119;SDS011;12670;53.502;10.252;2022-07-22T04:22:29;9.63;;;2.20;;
16119;SDS011;12670;53.502;10.252;2022-07-22T04:25:33;8.57;;;2.30;;
16119;SDS011;12670;53.502;10.252;2022-07-22T04:28:36;15.70;;;3.07;;
16119;SDS011;12670;53.502;10.252;2022-07-22T04:31:39;4.43;;;2.00;;
16119;SDS011;12670;53.502;10.252;2022-07-22T04:34:42;6.43;;;1.90;;
16119;SDS011;12670;53.502;10.252;2022-07-22T04:37:44;10.60;;;2.00;;
16119;SDS011;12670;53.502;10.252;2022-07-22T04:40:48;9.40;;;2.27;;
16119;SDS011;12670;53.502;10.252;2022-07-22T04:43:55;8.63;;;2.17;;
16119;SDS011;12670;53.502;10.252;2022-07-22T04:46:57;7.33;;;2.30;;
16119;SDS011;12670;53.502;10.252;2022-07-22T04:50:08;7.60;;;2.53;;
16119;SDS011;12670;53.502;10.252;2022-07-22T04:53:11;6.73;;;2.50;;
16119;SDS011;12670;53.502;10.252;2022-07-22T04:56:16;9.73;;;2.50;;
16119;SDS011;12670;53.502;10.252;2022-07-22T04:59:19;8.10;;;2.50;;
16119;SDS011;12670;53.502;10.252;2022-07-22T05:02:21;13.20;;;3.03;;
16119;SDS011;12670;53.502;10.252;2022-07-22T05:05:24;6.17;;;2.23;;
16119;SDS011;12670;53.502;10.252;2022-07-22T05:08:27;8.57;;;2.13;;
16119;SDS011;12670;53.502;10.252;2022-07-22T05:11:31;7.10;;;2.13;;
16119;SDS011;12670;53.502;10.252;2022-07-22T05:14:34;6.57;;;2.30;;
16119;SDS011;12670;53.502;10.252;2022-07-22T05:17:36;6.43;;;2.03;;
16119;SDS011;12670;53.502;10.252;2022-07-22T05:20:39;7.77;;;2.57;;
16119;SDS011;12670;53.502;10.252;2022-07-22T05:23:42;5.70;;;2.27;;
16119;SDS011;12670;53.502;10.252;2022-07-22T05:26:46;7.57;;;2.63;;
16119;SDS011;12670;53.502;10.252;2022-07-22T05:29:48;5.13;;;2.00;;
16119;SDS011;12670;53.502;10.252;2022-07-22T05:32:51;6.67;;;2.60;;
16119;SDS011;12670;53.502;10.252;2022-07-22T05:35:55;6.13;;;2.47;;
16119;SDS011;12670;53.502;10.252;2022-07-22T05:38:57;11.67;;;2.93;;
16119;SDS011;12670;53.502;10.252;2022-07-22T05:42:03;10.83;;;2.83;;
16119;SDS011;12670;53.502;10.252;2022-07-22T05:45:06;7.03;;;2.47;;
16119;SDS011;12670;53.502;10.252;2022-07-22T05:48:09;9.17;;;3.30;;
16119;SDS011;12670;53.502;10.252;2022-07-22T05:51:12;6.40;;;3.20;;
16119;SDS011;12670;53.502;10.252;2022-07-22T05:54:15;9.20;;;3.93;;
16119;SDS011;12670;53.502;10.252;2022-07-22T05:57:19;9.23;;;3.30;;
16119;SDS011;12670;53.502;10.252;2022-07-22T06:00:22;7.07;;;3.10;;
16119;SDS011;12670;53.502;10.252;2022-07-22T06:03:24;10.47;;;3.70;;
16119;SDS011;12670;53.502;10.252;2022-07-22T06:06:27;8.13;;;3.20;;
16119;SDS011;12670;53.502;10.252;2022-07-22T06:09:30;11.87;;;3.00;;
16119;SDS011;12670;53.502;10.252;2022-07-22T06:12:34;8.70;;;3.33;;
16119;SDS011;12670;53.502;10.252;2022-07-22T06:15:36;11.53;;;2.87;;
16119;SDS011;12670;53.502;10.252;2022-07-22T06:18:39;9.50;;;2.97;;
16119;SDS011;12670;53.502;10.252;2022-07-22T06:21:42;9.23;;;3.03;;
16119;SDS011;12670;53.502;10.252;2022-07-22T06:24:45;13.63;;;3.37;;
16119;SDS011;12670;53.502;10.252;2022-07-22T06:27:49;10.70;;;3.00;;
16119;SDS011;12670;53.502;10.252;2022-07-22T06:30:52;13.40;;;2.90;;
16119;SDS011;12670;53.502;10.252;2022-07-22T06:33:55;20.73;;;3.90;;
16119;SDS011;12670;53.502;10.252;2022-07-22T06:36:57;10.13;;;2.53;;
16119;SDS011;12670;53.502;10.252;2022-07-22T06:40:00;11.73;;;3.20;;
16119;SDS011;12670;53.502;10.252;2022-07-22T06:43:04;10.50;;;3.37;;
16119;SDS011;12670;53.502;10.252;2022-07-22T06:46:07;20.27;;;4.70;;
16119;SDS011;12670;53.502;10.252;2022-07-22T06:49:10;11.50;;;3.50;;
16119;SDS011;12670;53.502;10.252;2022-07-22T06:52:16;14.23;;;3.70;;
16119;SDS011;12670;53.502;10.252;2022-07-22T06:55:18;11.53;;;3.70;;
16119;SDS011;12670;53.502;10.252;2022-07-22T06:58:22;10.60;;;3.67;;
16119;SDS011;12670;53.502;10.252;2022-07-22T07:01:25;13.10;;;4.10;;
16119;SDS011;12670;53.502;10.252;2022-07-22T07:04:28;16.23;;;4.33;;
16119;SDS011;12670;53.502;10.252;2022-07-22T07:07:31;16.77;;;3.60;;
16119;SDS011;12670;53.502;10.252;2022-07-22T07:10:37;15.63;;;3.73;;
16119;SDS011;12670;53.502;10.252;2022-07-22T07:13:41;13.93;;;3.30;;
16119;SDS011;12670;53.502;10.252;2022-07-22T07:16:44;13.40;;;3.70;;
16119;SDS011;12670;53.502;10.252;2022-07-22T07:19:47;14.87;;;4.13;;
16119;SDS011;12670;53.502;10.252;2022-07-22T07:22:49;15.57;;;3.70;;
16119;SDS011;12670;53.502;10.252;2022-07-22T07:25:52;12.83;;;4.30;;
16119;SDS011;12670;53.502;10.252;2022-07-22T07:28:56;13.87;;;4.17;;
16119;SDS011;12670;53.502;10.252;2022-07-22T07:31:59;18.63;;;4.17;;
16119;SDS011;12670;53.502;10.252;2022-07-22T07:35:02;14.27;;;4.00;;
16119;SDS011;12670;53.502;10.252;2022-07-22T07:38:05;11.73;;;3.53;;
16119;SDS011;12670;53.502;10.252;2022-07-22T07:41:08;16.67;;;3.67;;
16119;SDS011;12670;53.502;10.252;2022-07-22T07:44:12;16.90;;;4.10;;
16119;SDS011;12670;53.502;10.252;2022-07-22T07:47:15;13.47;;;3.20;;
16119;SDS011;12670;53.502;10.252;2022-07-22T07:50:20;12.60;;;3.77;;
16119;SDS011;12670;53.502;10.252;2022-07-22T07:53:22;13.73;;;3.47;;
16119;SDS011;12670;53.502;10.252;2022-07-22T07:56:25;11.60;;;2.97;;
16119;SDS011;12670;53.502;10.252;2022-07-22T07:59:29;13.13;;;3.77;;
16119;SDS011;12670;53.502;10.252;2022-07-22T08:02:32;10.47;;;3.63;;
16119;SDS011;12670;53.502;10.252;2022-07-22T08:05:37;13.40;;;3.40;;
16119;SDS011;12670;53.502;10.252;2022-07-22T08:08:42;18.70;;;3.67;;
16119;SDS011;12670;53.502;10.252;2022-07-22T08:11:45;16.87;;;3.20;;
16119;SDS011;12670;53.502;10.252;2022-07-22T08:14:49;14.70;;;3.47;;
16119;SDS011;12670;53.502;10.252;2022-07-22T08:17:51;11.23;;;3.03;;
16119;SDS011;12670;53.502;10.252;2022-07-22T08:20:56;15.70;;;3.80;;
16119;SDS011;12670;53.502;10.252;2022-07-22T08:24:00;13.90;;;2.80;;
16119;SDS011;12670;53.502;10.252;2022-07-22T08:27:03;16.13;;;3.30;;
16119;SDS011;12670;53.502;10.252;2022-07-22T08:30:07;12.23;;;2.73;;
16119;SDS011;12670;53.502;10.252;2022-07-22T08:33:11;20.70;;;3.80;;
16119;SDS011;12670;53.502;10.252;2022-07-22T08:36:13;11.87;;;2.80;;
16119;SDS011;12670;53.502;10.252;2022-07-22T08:39:16;10.00;;;2.83;;
16119;SDS011;12670;53.502;10.252;2022-07-22T08:42:23;14.37;;;3.57;;
16119;SDS011;12670;53.502;10.252;2022-07-22T08:45:27;14.07;;;2.93;;
16119;SDS011;12670;53.502;10.252;2022-07-22T08:48:31;14.70;;;3.10;;
16119;SDS011;12670;53.502;10.252;2022-07-22T08:51:35;12.00;;;2.93;;
16119;SDS011;12670;53.502;10.252;2022-07-22T08:54:38;16.23;;;3.07;;
16119;SDS011;12670;53.502;10.252;2022-07-22T08:57:43;11.07;;;2.97;;
16119;SDS011;12670;53.502;10.252;2022-07-22T09:00:48;10.57;;;2.90;;
16119;SDS011;12670;53.502;10.252;2022-07-22T09:04:06;16.73;;;3.23;;
16119;SDS011;12670;53.502;10.252;2022-07-22T09:07:09;12.70;;;2.80;;
16119;SDS011;12670;53.502;10.252;2022-07-22T09:10:13;11.33;;;2.93;;
16119;SDS011;12670;53.502;10.252;2022-07-22T09:13:17;10.73;;;2.70;;
16119;SDS011;12670;53.502;10.252;2022-07-22T09:19:43;13.00;;;2.40;;
16119;SDS011;12670;53.502;10.252;2022-07-22T09:22:46;16.13;;;2.67;;
16119;SDS011;12670;53.502;10.252;2022-07-22T09:25:50;10.83;;;2.17;;
16119;SDS011;12670;53.502;10.252;2022-07-22T09:28:53;14.60;;;2.90;;
16119;SDS011;12670;53.502;10.252;2022-07-22T09:32:00;12.07;;;2.63;;
16119;SDS011;12670;53.502;10.252;2022-07-22T09:35:04;12.13;;;2.63;;
16119;SDS011;12670;53.502;10.252;2022-07-22T09:38:08;10.07;;;2.53;;
16119;SDS011;12670;53.502;10.252;2022-07-22T09:41:12;6.73;;;2.40;;
16119;SDS011;12670;53.502;10.252;2022-07-22T09:44:22;10.73;;;2.60;;
16119;SDS011;12670;53.502;10.252;2022-07-22T09:47:29;10.83;;;2.50;;
16119;SDS011;12670;53.502;10.252;2022-07-22T09:50:39;7.30;;;2.20;;
16119;SDS011;12670;53.502;10.252;2022-07-22T09:53:43;12.33;;;2.30;;
16119;SDS011;12670;53.502;10.252;2022-07-22T09:56:45;11.50;;;2.30;;
16119;SDS011;12670;53.502;10.252;2022-07-22T09:59:48;10.00;;;2.60;;
16119;SDS011;12670;53.502;10.252;2022-07-22T10:02:53;10.70;;;2.37;;
16119;SDS011;12670;53.502;10.252;2022-07-22T10:05:58;10.60;;;2.53;;
16119;SDS011;12670;53.502;10.252;2022-07-22T10:09:01;9.17;;;2.40;;
16119;SDS011;12670;53.502;10.252;2022-07-22T10:12:09;10.00;;;2.40;;
16119;SDS011;12670;53.502;10.252;2022-07-22T10:15:13;11.27;;;2.20;;
16119;SDS011;12670;53.502;10.252;2022-07-22T10:18:18;10.33;;;2.50;;
16119;SDS011;12670;53.502;10.252;2022-07-22T10:21:30;14.30;;;2.13;;
16119;SDS011;12670;53.502;10.252;2022-07-22T10:24:34;7.40;;;1.80;;
16119;SDS011;12670;53.502;10.252;2022-07-22T10:27:43;9.20;;;2.10;;
16119;SDS011;12670;53.502;10.252;2022-07-22T10:30:47;10.17;;;1.70;;
16119;SDS011;12670;53.502;10.252;2022-07-22T10:33:51;7.17;;;2.27;;
16119;SDS011;12670;53.502;10.252;2022-07-22T10:36:56;8.73;;;2.07;;
16119;SDS011;12670;53.502;10.252;2022-07-22T10:40:11;9.37;;;1.80;;
16119;SDS011;12670;53.502;10.252;2022-07-22T10:43:16;7.53;;;2.00;;
16119;SDS011;12670;53.502;10.252;2022-07-22T10:46:19;10.77;;;2.33;;
16119;SDS011;12670;53.502;10.252;2022-07-22T10:49:53;10.33;;;2.30;;
16119;SDS011;12670;53.502;10.252;2022-07-22T10:52:56;7.07;;;2.03;;
16119;SDS011;12670;53.502;10.252;2022-07-22T10:56:01;13.80;;;2.00;;
16119;SDS011;12670;53.502;10.252;2022-07-22T10:59:10;9.03;;;1.90;;
16119;SDS011;12670;53.502;10.252;2022-07-22T11:02:13;8.32;;;1.92;;
16119;SDS011;12670;53.502;10.252;2022-07-22T11:05:25;6.17;;;2.00;;
16119;SDS011;12670;53.502;10.252;2022-07-22T11:08:28;8.70;;;2.07;;
16119;SDS011;12670;53.502;10.252;2022-07-22T11:11:36;8.87;;;1.90;;
16119;SDS011;12670;53.502;10.252;2022-07-22T11:14:42;10.37;;;2.00;;
16119;SDS011;12670;53.502;10.252;2022-07-22T11:17:45;6.90;;;1.87;;
16119;SDS011;12670;53.502;10.252;2022-07-22T11:20:49;9.53;;;2.20;;
16119;SDS011;12670;53.502;10.252;2022-07-22T11:23:52;10.30;;;2.23;;
16119;SDS011;12670;53.502;10.252;2022-07-22T11:26:57;9.00;;;2.40;;
16119;SDS011;12670;53.502;10.252;2022-07-22T11:30:06;8.03;;;2.20;;
16119;SDS011;12670;53.502;10.252;2022-07-22T11:33:09;8.30;;;2.00;;
16119;SDS011;12670;53.502;10.252;2022-07-22T11:36:13;6.93;;;2.17;;
16119;SDS011;12670;53.502;10.252;2022-07-22T11:39:18;8.45;;;1.98;;
16119;SDS011;12670;53.502;10.252;2022-07-22T11:42:24;8.65;;;1.73;;
16119;SDS011;12670;53.502;10.252;2022-07-22T11:45:27;8.60;;;1.90;;
16119;SDS011;12670;53.502;10.252;2022-07-22T11:48:30;7.10;;;2.03;;
16119;SDS011;12670;53.502;10.252;2022-07-22T11:51:34;6.95;;;1.92;;
16119;SDS011;12670;53.502;10.252;2022-07-22T11:54:39;8.43;;;2.33;;
16119;SDS011;12670;53.502;10.252;2022-07-22T11:57:46;17.13;;;2.50;;
16119;SDS011;12670;53.502;10.252;2022-07-22T12:00:49;8.40;;;2.03;;
16119;SDS011;12670;53.502;10.252;2022-07-22T12:03:53;5.65;;;1.70;;
16119;SDS011;12670;53.502;10.252;2022-07-22T12:07:00;4.93;;;1.80;;
16119;SDS011;12670;53.502;10.252;2022-07-22T12:10:03;12.02;;;2.45;;
16119;SDS011;12670;53.502;10.252;2022-07-22T12:13:06;5.72;;;1.88;;
16119;SDS011;12670;53.502;10.252;2022-07-22T12:16:16;4.22;;;1.60;;
16119;SDS011;12670;53.502;10.252;2022-07-22T12:19:23;5.22;;;1.67;;
16119;SDS011;12670;53.502;10.252;2022-07-22T12:22:31;6.53;;;1.88;;
16119;SDS011;12670;53.502;10.252;2022-07-22T12:25:48;8.90;;;2.05;;
16119;SDS011;12670;53.502;10.252;2022-07-22T12:32:24;10.10;;;2.17;;
16119;SDS011;12670;53.502;10.252;2022-07-22T12:35:28;8.75;;;2.40;;
16119;SDS011;12670;53.502;10.252;2022-07-22T12:38:32;9.77;;;2.00;;
16119;SDS011;12670;53.502;10.252;2022-07-22T12:41:44;5.25;;;1.83;;
16119;SDS011;12670;53.502;10.252;2022-07-22T12:44:51;7.63;;;2.07;;
16119;SDS011;12670;53.502;10.252;2022-07-22T12:47:56;6.50;;;2.17;;
16119;SDS011;12670;53.502;10.252;2022-07-22T12:51:00;5.73;;;2.03;;
16119;SDS011;12670;53.502;10.252;2022-07-22T12:54:04;8.67;;;1.90;;
16119;SDS011;12670;53.502;10.252;2022-07-22T12:57:07;6.32;;;1.60;;
16119;SDS011;12670;53.502;10.252;2022-07-22T13:00:15;8.50;;;1.95;;
16119;SDS011;12670;53.502;10.252;2022-07-22T13:03:19;9.88;;;1.67;;
16119;SDS011;12670;53.502;10.252;2022-07-22T13:06:23;8.38;;;2.35;;
16119;SDS011;12670;53.502;10.252;2022-07-22T13:09:27;9.23;;;2.10;;
16119;SDS011;12670;53.502;10.252;2022-07-22T13:12:30;4.77;;;1.50;;
16119;SDS011;12670;53.502;10.252;2022-07-22T13:15:32;6.00;;;1.77;;
16119;SDS011;12670;53.502;10.252;2022-07-22T13:18:35;9.73;;;1.80;;
16119;SDS011;12670;53.502;10.252;2022-07-22T13:21:38;9.02;;;2.28;;
16119;SDS011;12670;53.502;10.252;2022-07-22T13:24:42;10.55;;;2.08;;
16119;SDS011;12670;53.502;10.252;2022-07-22T13:27:45;6.82;;;1.80;;
16119;SDS011;12670;53.502;10.252;2022-07-22T13:30:47;8.40;;;1.73;;
16119;SDS011;12670;53.502;10.252;2022-07-22T13:33:50;3.70;;;1.40;;
16119;SDS011;12670;53.502;10.252;2022-07-22T13:36:53;6.80;;;1.60;;
16119;SDS011;12670;53.502;10.252;2022-07-22T13:39:57;8.23;;;1.73;;
16119;SDS011;12670;53.502;10.252;2022-07-22T13:42:59;7.22;;;1.50;;
16119;SDS011;12670;53.502;10.252;2022-07-22T13:46:02;6.78;;;1.67;;
16119;SDS011;12670;53.502;10.252;2022-07-22T13:49:05;4.38;;;1.80;;
16119;SDS011;12670;53.502;10.252;2022-07-22T13:52:08;4.63;;;1.60;;
16119;SDS011;12670;53.502;10.252;2022-07-22T13:55:12;8.65;;;2.00;;
16119;SDS011;12670;53.502;10.252;2022-07-22T13:58:15;6.22;;;1.80;;
16119;SDS011;12670;53.502;10.252;2022-07-22T14:01:17;8.85;;;1.77;;
16119;SDS011;12670;53.502;10.252;2022-07-22T14:04:20;6.78;;;1.85;;
16119;SDS011;12670;53.502;10.252;2022-07-22T14:07:23;4.50;;;1.90;;
16119;SDS011;12670;53.502;10.252;2022-07-22T14:10:27;8.15;;;2.08;;
16119;SDS011;12670;53.502;10.252;2022-07-22T14:13:30;6.60;;;1.95;;
16119;SDS011;12670;53.502;10.252;2022-07-22T14:16:39;7.97;;;1.65;;
16119;SDS011;12670;53.502;10.252;2022-07-22T14:19:58;12.18;;;2.22;;
16119;SDS011;12670;53.502;10.252;2022-07-22T14:23:02;8.38;;;1.77;;
16119;SDS011;12670;53.502;10.252;2022-07-22T14:26:07;10.07;;;2.25;;
16119;SDS011;12670;53.502;10.252;2022-07-22T14:29:10;5.90;;;2.20;;
16119;SDS011;12670;53.502;10.252;2022-07-22T14:32:13;10.15;;;4.15;;
16119;SDS011;12670;53.502;10.252;2022-07-22T14:35:15;8.70;;;2.90;;
16119;SDS011;12670;53.502;10.252;2022-07-22T14:38:18;6.50;;;2.00;;
16119;SDS011;12670;53.502;10.252;2022-07-22T14:41:22;11.50;;;2.45;;
16119;SDS011;12670;53.502;10.252;2022-07-22T14:44:25;9.48;;;3.05;;
16119;SDS011;12670;53.502;10.252;2022-07-22T14:47:27;11.73;;;3.85;;
16119;SDS011;12670;53.502;10.252;2022-07-22T14:50:30;8.73;;;2.60;;
16119;SDS011;12670;53.502;10.252;2022-07-22T14:53:33;7.60;;;3.67;;
16119;SDS011;12670;53.502;10.252;2022-07-22T14:56:37;6.80;;;2.85;;
16119;SDS011;12670;53.502;10.252;2022-07-22T14:59:40;8.05;;;2.90;;
16119;SDS011;12670;53.502;10.252;2022-07-22T15:02:43;8.90;;;2.45;;
16119;SDS011;12670;53.502;10.252;2022-07-22T15:05:45;5.53;;;2.13;;
16119;SDS011;12670;53.502;10.252;2022-07-22T15:08:48;7.25;;;2.00;;
16119;SDS011;12670;53.502;10.252;2022-07-22T15:11:52;7.20;;;2.33;;
16119;SDS011;12670;53.502;10.252;2022-07-22T15:14:56;7.55;;;1.88;;
16119;SDS011;12670;53.502;10.252;2022-07-22T15:17:58;5.72;;;2.00;;
16119;SDS011;12670;53.502;10.252;2022-07-22T15:21:01;8.43;;;2.15;;
16119;SDS011;12670;53.502;10.252;2022-07-22T15:24:04;6.80;;;1.90;;
16119;SDS011;12670;53.502;10.252;2022-07-22T15:27:09;6.80;;;1.92;;
16119;SDS011;12670;53.502;10.252;2022-07-22T15:30:11;6.18;;;1.90;;
16119;SDS011;12670;53.502;10.252;2022-07-22T15:33:14;5.53;;;1.75;;
16119;SDS011;12670;53.502;10.252;2022-07-22T15:36:21;6.03;;;1.50;;
16119;SDS011;12670;53.502;10.252;2022-07-22T15:39:24;7.53;;;1.90;;
16119;SDS011;12670;53.502;10.252;2022-07-22T15:42:27;7.72;;;1.80;;
16119;SDS011;12670;53.502;10.252;2022-07-22T15:45:30;8.75;;;1.90;;
16119;SDS011;12670;53.502;10.252;2022-07-22T15:48:33;8.00;;;2.22;;
16119;SDS011;12670;53.502;10.252;2022-07-22T15:51:36;3.78;;;1.90;;
16119;SDS011;12670;53.502;10.252;2022-07-22T15:54:38;6.65;;;1.73;;
16119;SDS011;12670;53.502;10.252;2022-07-22T15:57:43;6.87;;;2.20;;
16119;SDS011;12670;53.502;10.252;2022-07-22T16:01:03;5.00;;;1.75;;
16119;SDS011;12670;53.502;10.252;2022-07-22T16:04:06;5.43;;;2.03;;
16119;SDS011;12670;53.502;10.252;2022-07-22T16:07:09;6.15;;;2.15;;
16119;SDS011;12670;53.502;10.252;2022-07-22T16:10:13;7.23;;;1.80;;
16119;SDS011;12670;53.502;10.252;2022-07-22T16:13:17;5.33;;;1.70;;
16119;SDS011;12670;53.502;10.252;2022-07-22T16:16:19;4.75;;;1.60;;
16119;SDS011;12670;53.502;10.252;2022-07-22T16:19:22;6.20;;;1.48;;
16119;SDS011;12670;53.502;10.252;2022-07-22T16:22:25;4.22;;;1.70;;
16119;SDS011;12670;53.502;10.252;2022-07-22T16:25:28;7.77;;;1.67;;
16119;SDS011;12670;53.502;10.252;2022-07-22T16:28:32;5.93;;;1.90;;
16119;SDS011;12670;53.502;10.252;2022-07-22T16:31:34;11.55;;;2.03;;
16119;SDS011;12670;53.502;10.252;2022-07-22T16:34:37;9.68;;;2.00;;
16119;SDS011;12670;53.502;10.252;2022-07-22T16:37:40;5.03;;;1.90;;
16119;SDS011;12670;53.502;10.252;2022-07-22T16:40:42;4.43;;;1.87;;
16119;SDS011;12670;53.502;10.252;2022-07-22T16:43:46;5.10;;;1.80;;
16119;SDS011;12670;53.502;10.252;2022-07-22T16:46:49;7.43;;;1.77;;
16119;SDS011;12670;53.502;10.252;2022-07-22T16:49:52;6.57;;;1.83;;
16119;SDS011;12670;53.502;10.252;2022-07-22T16:52:54;9.20;;;2.23;;
16119;SDS011;12670;53.502;10.252;2022-07-22T16:55:57;8.90;;;1.90;;
16119;SDS011;12670;53.502;10.252;2022-07-22T16:59:01;5.90;;;1.83;;
16119;SDS011;12670;53.502;10.252;2022-07-22T17:02:04;6.60;;;1.70;;
16119;SDS011;12670;53.502;10.252;2022-07-22T17:05:07;5.20;;;1.83;;
16119;SDS011;12670;53.502;10.252;2022-07-22T17:08:10;4.23;;;1.60;;
16119;SDS011;12670;53.502;10.252;2022-07-22T17:11:13;5.77;;;1.47;;
16119;SDS011;12670;53.502;10.252;2022-07-22T17:14:17;3.33;;;1.73;;
16119;SDS011;12670;53.502;10.252;2022-07-22T17:17:19;3.87;;;1.73;;
16119;SDS011;12670;53.502;10.252;2022-07-22T17:20:22;6.47;;;1.93;;
16119;SDS011;12670;53.502;10.252;2022-07-22T17:23:25;3.80;;;1.70;;
16119;SDS011;12670;53.502;10.252;2022-07-22T17:26:27;6.30;;;1.93;;
16119;SDS011;12670;53.502;10.252;2022-07-22T17:29:31;5.97;;;1.90;;
16119;SDS011;12670;53.502;10.252;2022-07-22T17:32:34;5.20;;;1.70;;
16119;SDS011;12670;53.502;10.252;2022-07-22T17:35:37;7.47;;;2.00;;
16119;SDS011;12670;53.502;10.252;2022-07-22T17:38:42;6.23;;;2.40;;
16119;SDS011;12670;53.502;10.252;2022-07-22T17:41:45;8.47;;;2.50;;
16119;SDS011;12670;53.502;10.252;2022-07-22T17:44:49;5.27;;;2.47;;
16119;SDS011;12670;53.502;10.252;2022-07-22T17:47:52;4.87;;;2.13;;
16119;SDS011;12670;53.502;10.252;2022-07-22T17:50:55;6.03;;;2.30;;
16119;SDS011;12670;53.502;10.252;2022-07-22T17:53:58;7.77;;;2.40;;
16119;SDS011;12670;53.502;10.252;2022-07-22T17:57:00;4.43;;;2.00;;
16119;SDS011;12670;53.502;10.252;2022-07-22T18:00:05;4.67;;;2.70;;
16119;SDS011;12670;53.502;10.252;2022-07-22T18:03:09;5.27;;;2.10;;
16119;SDS011;12670;53.502;10.252;2022-07-22T18:06:12;6.23;;;2.50;;
16119;SDS011;12670;53.502;10.252;2022-07-22T18:09:15;5.23;;;2.30;;
16119;SDS011;12670;53.502;10.252;2022-07-22T18:12:17;7.70;;;2.00;;